Time;durP1;ratioP1;P1;durP2;ratioP2;P2;SDS_P1;SDS_P2;PMS_P1;PMS_P2;Temp;Humidity;BMP_temperature;BMP_pressure;BME280_temperature;BME280_humidity;BME280_pressure;Samples;Min_cycle;Max_cycle;Signal;HPM_P1;HPM_P2
2024/03/17 00:00:17;;;;;;;12.35;8.05;;;;;;;5.14;76.98;94969.41;5092159;28;20081;-75
2024/03/17 00:02:43;;;;;;;15.88;9.98;;;;;;;4.91;77.41;94948.44;5099966;28;20119;-76
2024/03/17 00:05:08;;;;;;;13.48;10.40;;;;;;;4.94;78.02;94960.28;5110382;28;20493;-75
2024/03/17 00:07:34;;;;;;;11.45;7.85;;;;;;;5.24;77.39;94962.00;5095652;28;20478;-75
2024/03/17 00:09:59;;;;;;;14.13;8.45;;;;;;;5.26;76.08;94966.09;5110509;28;20066;-75
2024/03/17 00:12:25;;;;;;;15.18;9.98;;;;;;;5.08;76.87;94967.22;5108820;28;20032;-75
2024/03/17 00:14:51;;;;;;;14.90;9.48;;;;;;;5.02;77.15;94950.38;5093306;28;20031;-75
2024/03/17 00:17:16;;;;;;;14.00;9.30;;;;;;;5.09;77.34;94953.41;5084902;28;20035;-75
2024/03/17 00:19:42;;;;;;;15.38;9.10;;;;;;;4.87;78.31;94951.25;5110325;28;20421;-75
2024/03/17 00:22:08;;;;;;;10.05;7.05;;;;;;;5.04;78.28;94952.84;5100996;28;20047;-75
2024/03/17 00:24:35;;;;;;;9.65;6.82;;;;;;;5.23;76.70;94963.72;5109825;28;20107;-76
2024/03/17 00:27:01;;;;;;;9.60;6.65;;;;;;;5.15;76.13;94966.78;5110695;28;20032;-76
2024/03/17 00:29:27;;;;;;;8.63;6.60;;;;;;;5.10;76.31;94962.81;5108021;28;20031;-76
2024/03/17 00:31:53;;;;;;;11.30;7.57;;;;;;;5.06;75.96;94963.91;5100033;28;20035;-76
2024/03/17 00:34:19;;;;;;;9.80;6.50;;;;;;;5.01;75.83;94943.56;5108456;28;20020;-75
2024/03/17 00:36:45;;;;;;;12.88;8.57;;;;;;;4.91;75.80;94960.47;5092982;28;20031;-75
2024/03/17 00:39:11;;;;;;;13.00;8.43;;;;;;;4.51;77.31;94931.88;5102101;28;20111;-75
2024/03/17 00:41:36;;;;;;;15.13;8.88;;;;;;;4.41;78.03;94943.63;5109846;28;20031;-75
2024/03/17 00:44:02;;;;;;;12.05;8.10;;;;;;;4.44;78.60;94954.56;5093057;28;20039;-75
2024/03/17 00:46:28;;;;;;;9.63;7.43;;;;;;;4.50;77.99;94942.25;5087941;28;20482;-76
2024/03/17 00:48:54;;;;;;;9.90;6.65;;;;;;;4.52;77.00;94935.28;5104153;28;20085;-75
2024/03/17 00:51:19;;;;;;;10.05;6.20;;;;;;;4.55;76.53;94950.56;5086939;28;20028;-75
2024/03/17 00:53:44;;;;;;;9.48;6.18;;;;;;;4.55;77.15;94951.38;5105079;28;20038;-75
2024/03/17 00:56:10;;;;;;;8.70;6.28;;;;;;;4.40;77.36;94954.81;5072063;28;20024;-74
2024/03/17 00:58:35;;;;;;;8.93;6.45;;;;;;;4.46;77.80;94957.88;5087607;28;20085;-74
2024/03/17 01:01:01;;;;;;;9.70;6.28;;;;;;;4.56;77.69;94962.50;5094473;28;20024;-75
2024/03/17 01:03:27;;;;;;;8.45;6.13;;;;;;;4.53;77.56;94963.50;5106442;28;20519;-74
2024/03/17 01:05:53;;;;;;;10.35;6.43;;;;;;;4.55;78.02;94960.84;5109749;28;20024;-75
2024/03/17 01:08:21;;;;;;;8.45;5.80;;;;;;;4.51;77.71;94956.78;5093951;28;20387;-76
2024/03/17 01:10:49;;;;;;;8.48;6.40;;;;;;;4.44;77.65;94954.56;5074541;28;20032;-76
2024/03/17 01:13:15;;;;;;;8.77;6.28;;;;;;;4.52;77.53;94966.16;5106010;28;20027;-77
2024/03/17 01:15:40;;;;;;;8.38;5.80;;;;;;;4.36;76.99;94933.56;5090739;28;20481;-77
2024/03/17 01:18:06;;;;;;;11.25;7.15;;;;;;;4.38;77.12;94956.66;5099590;28;20035;-77
2024/03/17 01:20:32;;;;;;;8.82;6.22;;;;;;;4.32;77.29;94947.53;5105473;28;20036;-77
2024/03/17 01:22:57;;;;;;;7.88;6.07;;;;;;;4.34;77.77;94958.56;5109677;28;20546;-77
2024/03/17 01:25:25;;;;;;;9.15;6.50;;;;;;;4.31;77.65;94963.03;5108344;28;20047;-76
2024/03/17 01:27:51;;;;;;;7.93;5.93;;;;;;;4.09;78.27;94941.09;5108597;28;20020;-76
2024/03/17 01:30:16;;;;;;;8.98;6.40;;;;;;;4.02;78.79;94953.47;5108397;28;20586;-75
2024/03/17 01:32:42;;;;;;;9.90;6.25;;;;;;;4.01;79.57;94962.09;5088572;28;20478;-74
2024/03/17 01:35:07;;;;;;;12.00;6.68;;;;;;;3.98;79.90;94962.28;5089091;28;20024;-74
2024/03/17 01:37:33;;;;;;;10.75;6.60;;;;;;;4.00;79.28;94939.84;5094230;28;20028;-74
2024/03/17 01:39:59;;;;;;;8.52;6.88;;;;;;;4.09;79.71;94963.41;5111377;28;20035;-73
2024/03/17 01:42:24;;;;;;;10.30;7.53;;;;;;;4.05;79.82;94967.06;5091124;27;20037;-76
2024/03/17 01:44:50;;;;;;;15.32;10.50;;;;;;;4.19;78.72;94965.38;5135350;27;20388;-76
2024/03/17 01:47:19;;;;;;;15.23;10.70;;;;;;;4.18;78.60;94947.47;5123971;27;20118;-76
2024/03/17 01:49:47;;;;;;;13.18;8.80;;;;;;;4.24;78.38;94963.41;5100115;27;20027;-76
2024/03/17 01:52:13;;;;;;;9.93;7.38;;;;;;;4.19;78.74;94967.13;5148743;27;20030;-74
2024/03/17 01:54:39;;;;;;;9.40;6.93;;;;;;;3.98;78.95;94962.28;5119233;27;20480;-75
2024/03/17 01:57:04;;;;;;;11.15;7.93;;;;;;;3.62;80.54;94943.66;5134339;27;20027;-76
2024/03/17 01:59:30;;;;;;;10.60;7.32;;;;;;;3.63;81.92;94963.34;5098435;27;20027;-76
2024/03/17 02:01:56;;;;;;;11.88;7.65;;;;;;;3.58;82.63;94961.81;5128039;27;20027;-76
2024/03/17 02:04:22;;;;;;;11.65;7.40;;;;;;;3.48;82.43;94942.69;5134691;27;20457;-77
2024/03/17 02:06:47;;;;;;;11.38;8.25;;;;;;;3.50;82.71;94942.59;5136573;27;20037;-76
2024/03/17 02:09:12;;;;;;;12.85;8.00;;;;;;;3.64;82.54;94952.13;5116940;27;20106;-75
2024/03/17 02:11:38;;;;;;;10.57;8.23;;;;;;;3.69;82.88;94968.13;5127793;27;20037;-75
2024/03/17 02:14:03;;;;;;;12.68;7.47;;;;;;;3.78;82.56;94965.06;5136620;27;20026;-75
2024/03/17 02:16:29;;;;;;;14.25;8.65;;;;;;;3.62;82.83;94961.66;5126839;27;20064;-76
2024/03/17 02:18:55;;;;;;;12.05;8.73;;;;;;;3.68;82.69;94969.88;5084677;27;20034;-76
2024/03/17 02:21:23;;;;;;;12.55;8.45;;;;;;;3.63;82.93;94965.91;5099946;27;20037;-76
2024/03/17 02:23:48;;;;;;;9.85;7.82;;;;;;;3.73;81.61;94949.91;5116253;27;20019;-76
2024/03/17 02:26:13;;;;;;;11.90;7.90;;;;;;;3.78;81.33;94970.22;5104441;27;20488;-76
2024/03/17 02:28:42;;;;;;;10.30;7.88;;;;;;;3.67;81.55;94952.78;5120110;27;20030;-77
2024/03/17 02:31:08;;;;;;;9.52;7.40;;;;;;;3.76;81.41;94969.44;5121016;27;20031;-76
2024/03/17 02:33:34;;;;;;;13.90;8.30;;;;;;;3.73;81.21;94964.47;5105696;27;20019;-77
2024/03/17 02:35:59;;;;;;;32.17;15.32;;;;;;;3.71;81.84;94959.44;5137921;27;20042;-77
2024/03/17 02:41:08;;;;;;;13.02;8.18;;;;;;;3.73;82.20;94956.78;5123728;27;20118;-77
2024/03/17 02:43:35;;;;;;;10.07;6.85;;;;;;;3.90;81.11;94955.84;5125772;27;20110;-77
2024/03/17 02:46:04;;;;;;;14.15;7.93;;;;;;;3.79;81.57;94951.31;5137724;27;20049;-77
2024/03/17 02:48:29;;;;;;;10.73;7.00;;;;;;;3.82;81.52;94940.88;5087879;27;20449;-77
2024/03/17 02:50:56;;;;;;;12.18;7.28;;;;;;;3.68;81.76;94951.06;5117979;27;20034;-77
2024/03/17 02:53:21;;;;;;;11.48;7.80;;;;;;;3.72;82.23;94960.25;5118341;27;20037;-77
2024/03/17 02:55:46;;;;;;;12.40;7.95;;;;;;;3.56;82.36;94931.97;5128331;27;20043;-77
2024/03/17 02:58:12;;;;;;;13.32;8.15;;;;;;;3.61;82.72;94967.72;5133913;27;20019;-77
2024/03/17 03:00:38;;;;;;;11.30;7.55;;;;;;;3.57;83.10;94957.59;5133235;27;20083;-77
2024/03/17 03:03:04;;;;;;;12.65;7.68;;;;;;;3.55;83.05;94948.31;5120539;27;20063;-77
2024/03/17 03:05:30;;;;;;;12.02;7.63;;;;;;;3.66;82.98;94955.47;5134691;27;20396;-77
2024/03/17 03:07:55;;;;;;;11.35;7.32;;;;;;;3.83;82.14;94954.56;5099968;27;20031;-77
2024/03/17 03:10:21;;;;;;;10.00;7.65;;;;;;;3.71;82.59;94958.63;5115118;27;20493;-77
2024/03/17 03:12:46;;;;;;;11.75;7.13;;;;;;;3.67;82.67;94957.09;5115046;27;20027;-76
2024/03/17 03:15:12;;;;;;;11.27;7.47;;;;;;;3.63;82.69;94956.44;5153750;27;20063;-76
2024/03/17 03:17:38;;;;;;;12.95;8.05;;;;;;;3.52;82.95;94913.34;5101411;27;20023;-77
2024/03/17 03:20:05;;;;;;;10.25;7.30;;;;;;;3.62;82.70;94921.38;5101219;27;20027;-77
2024/03/17 03:22:31;;;;;;;10.77;7.18;;;;;;;3.77;82.92;94953.16;5118794;27;20114;-77
2024/03/17 03:24:56;;;;;;;11.18;7.45;;;;;;;3.76;83.09;94952.31;5101479;27;20133;-77
2024/03/17 03:27:22;;;;;;;13.55;7.60;;;;;;;3.80;82.59;94947.84;5118231;27;20457;-75
2024/03/17 03:29:47;;;;;;;10.35;7.72;;;;;;;3.67;82.39;94923.69;5154233;27;20086;-76
2024/03/17 03:32:13;;;;;;;12.60;8.10;;;;;;;3.71;82.39;94938.06;5135174;27;20039;-76
2024/03/17 03:34:39;;;;;;;13.35;8.57;;;;;;;3.86;82.40;94951.81;5153063;27;20042;-76
2024/03/17 03:37:07;;;;;;;11.55;8.00;;;;;;;3.16;82.15;94835.72;5100519;27;20507;-76
2024/03/17 03:39:32;;;;;;;12.18;7.28;;;;;;;4.05;81.40;94943.94;5119010;27;20280;-76
2024/03/17 03:41:57;;;;;;;11.80;8.27;;;;;;;3.96;81.44;94943.53;5134925;27;20405;-77
2024/03/17 03:44:23;;;;;;;8.90;6.70;;;;;;;4.21;80.52;94960.16;5135099;27;20034;-76
2024/03/17 03:46:48;;;;;;;10.88;7.03;;;;;;;4.05;80.20;94941.34;5153488;27;20034;-76
2024/03/17 03:49:14;;;;;;;12.75;8.02;;;;;;;3.70;80.42;94933.81;5134845;27;20030;-76
2024/03/17 03:51:39;;;;;;;11.25;7.97;;;;;;;3.92;80.06;94951.47;5134993;27;20023;-76
2024/03/17 03:54:06;;;;;;;11.70;7.72;;;;;;;3.97;79.13;94970.06;5134854;27;20079;-76
2024/03/17 03:56:33;;;;;;;12.68;7.82;;;;;;;3.76;79.47;94949.75;5117652;27;20042;-76
2024/03/17 03:58:58;;;;;;;12.95;8.07;;;;;;;3.81;80.02;94967.47;5153396;27;20026;-76
2024/03/17 04:01:24;;;;;;;11.73;7.55;;;;;;;3.71;80.49;94968.91;5153131;27;20034;-76
2024/03/17 04:03:52;;;;;;;11.57;8.05;;;;;;;3.75;79.67;94980.66;5134640;27;20503;-76
2024/03/17 04:06:17;;;;;;;11.85;7.78;;;;;;;3.63;79.73;94963.34;5153048;27;20034;-76
2024/03/17 04:08:43;;;;;;;12.43;8.35;;;;;;;3.63;79.93;94977.00;5133930;27;20027;-76
2024/03/17 04:11:09;;;;;;;11.68;7.75;;;;;;;3.79;79.89;94982.16;5152945;27;20469;-76
2024/03/17 04:13:35;;;;;;;11.20;8.07;;;;;;;3.79;79.67;94985.56;5134525;27;20091;-76
2024/03/17 04:16:01;;;;;;;11.35;7.80;;;;;;;3.62;80.04;94977.06;5117353;27;20026;-76
2024/03/17 04:18:26;;;;;;;12.35;8.10;;;;;;;3.56;80.46;94986.75;5117705;27;20106;-76
2024/03/17 04:20:55;;;;;;;13.02;8.68;;;;;;;3.24;81.06;94982.47;5117286;27;20023;-76
2024/03/17 04:23:24;;;;;;;13.88;9.27;;;;;;;3.08;82.37;94965.28;5133557;27;20480;-76
2024/03/17 04:25:50;;;;;;;11.00;8.98;;;;;;;3.48;81.61;94994.06;5117115;27;20031;-74
2024/03/17 04:28:16;;;;;;;17.95;11.88;;;;;;;3.29;81.58;94988.22;5113165;27;20488;-81
2024/03/17 04:30:42;;;;;;;15.15;11.90;;;;;;;3.29;81.82;94994.19;5116354;27;20035;-80
2024/03/17 04:33:11;;;;;;;13.98;10.98;;;;;;;3.51;81.67;95009.31;5113592;28;20038;-79
2024/03/17 04:35:37;;;;;;;12.50;9.55;;;;;;;3.34;81.59;95001.63;5113480;27;20420;-80
2024/03/17 04:38:02;;;;;;;13.10;9.48;;;;;;;3.46;82.01;95013.84;5113365;27;20072;-82
2024/03/17 04:40:28;;;;;;;16.52;9.60;;;;;;;3.37;82.22;95016.88;5132125;27;20035;-82
2024/03/17 04:42:53;;;;;;;14.55;9.30;;;;;;;3.35;81.76;94999.00;5113578;28;20075;-81
2024/03/17 04:45:19;;;;;;;13.95;10.23;;;;;;;3.18;82.99;95019.56;5119474;27;20026;-81
2024/03/17 04:47:44;;;;;;;11.98;9.13;;;;;;;3.43;81.83;95026.03;5152066;27;20022;-81
2024/03/17 04:50:10;;;;;;;15.55;9.50;;;;;;;3.20;82.34;95014.34;5116960;27;20139;-79
2024/03/17 04:52:35;;;;;;;16.20;12.63;;;;;;;3.34;82.76;95033.28;5134026;27;20480;-79
2024/03/17 04:55:00;;;;;;;14.23;10.00;;;;;;;3.37;82.30;95011.75;5134285;27;20030;-77
2024/03/17 04:57:26;;;;;;;15.65;10.57;;;;;;;3.45;82.55;95039.59;5116744;27;20492;-77
2024/03/17 04:59:51;;;;;;;16.20;9.95;;;;;;;3.36;81.63;94999.81;5133476;27;20018;-77
2024/03/17 05:02:17;;;;;;;14.73;9.50;;;;;;;3.44;81.60;95023.38;5116763;27;20038;-78
2024/03/17 05:04:42;;;;;;;13.05;9.05;;;;;;;3.39;82.02;95017.63;5116951;27;20031;-79
2024/03/17 05:07:09;;;;;;;13.25;9.43;;;;;;;3.57;82.21;95037.25;5152006;27;20125;-78
2024/03/17 05:09:34;;;;;;;12.95;9.05;;;;;;;3.52;82.39;95025.53;5132123;27;20029;-74
2024/03/17 05:12:00;;;;;;;13.30;9.00;;;;;;;3.61;82.38;95043.03;5127747;27;20027;-75
2024/03/17 05:14:26;;;;;;;15.75;11.00;;;;;;;3.63;82.32;95040.41;5119060;27;20030;-74
2024/03/17 05:16:52;;;;;;;15.60;9.70;;;;;;;3.67;82.38;95047.84;5127167;27;20027;-75
2024/03/17 05:19:17;;;;;;;18.55;12.20;;;;;;;3.79;82.00;95049.81;5115564;27;20431;-75
2024/03/17 05:21:44;;;;;;;15.93;10.65;;;;;;;3.94;81.38;95058.44;5115502;27;20035;-74
2024/03/17 05:24:11;;;;;;;15.55;10.20;;;;;;;3.90;81.37;95046.69;5133361;27;20098;-74
2024/03/17 05:26:37;;;;;;;14.45;9.85;;;;;;;4.19;80.71;95054.56;5118105;27;20510;-74
2024/03/17 05:29:02;;;;;;;14.65;9.63;;;;;;;4.25;80.04;95057.63;5114983;27;20027;-75
2024/03/17 05:31:28;;;;;;;14.85;10.25;;;;;;;4.13;80.41;95039.47;5089343;27;20517;-74
2024/03/17 05:33:53;;;;;;;15.25;10.55;;;;;;;4.17;80.22;95044.34;5122408;27;20026;-74
2024/03/17 05:36:20;;;;;;;17.67;10.70;;;;;;;4.40;80.20;95053.41;5148493;27;20031;-74
2024/03/17 05:38:45;;;;;;;16.55;11.35;;;;;;;4.53;79.33;95056.13;5130979;27;20051;-74
2024/03/17 05:41:10;;;;;;;20.63;13.43;;;;;;;4.70;78.92;95045.72;5132732;27;20080;-74
2024/03/17 05:43:37;;;;;;;25.05;17.05;;;;;;;4.75;78.99;95048.03;5130215;27;20161;-74
2024/03/17 05:46:06;;;;;;;51.97;32.25;;;;;;;4.85;78.84;95056.91;5100420;27;20046;-74
2024/03/17 05:48:37;;;;;;;46.53;31.45;;;;;;;5.10;78.12;95060.66;5098896;27;20015;-74
2024/03/17 05:51:03;;;;;;;57.25;37.05;;;;;;;4.91;78.02;95056.56;5096134;27;20073;-76
2024/03/17 05:53:29;;;;;;;42.72;29.95;;;;;;;5.40;77.43;95054.63;5152549;27;20027;-69
2024/03/17 05:55:55;;;;;;;57.10;35.10;;;;;;;5.52;75.72;95028.16;5150374;27;20034;-76
2024/03/17 05:58:20;;;;;;;53.63;30.90;;;;;;;5.69;75.43;95043.44;5117574;27;20019;-76
2024/03/17 06:00:46;;;;;;;39.92;27.35;;;;;;;6.17;73.97;95048.31;5108871;27;20026;-77
2024/03/17 06:03:11;;;;;;;53.67;34.42;;;;;;;6.28;74.00;95058.81;5152777;27;20015;-77
2024/03/17 06:05:38;;;;;;;62.22;38.25;;;;;;;5.92;74.63;95036.88;5127024;27;20031;-79
2024/03/17 06:08:05;;;;;;;58.63;35.83;;;;;;;6.62;71.92;95059.25;5102623;27;20027;-77
2024/03/17 06:10:34;;;;;;;71.13;41.30;;;;;;;6.25;73.17;95051.25;5111258;27;20034;-75
2024/03/17 06:13:00;;;;;;;61.67;37.20;;;;;;;6.85;71.13;95060.38;5133047;27;20173;-77
2024/03/17 06:15:26;;;;;;;60.05;32.92;;;;;;;7.11;69.88;95056.13;5129332;27;20600;-76
2024/03/17 06:17:52;;;;;;;47.70;30.65;;;;;;;7.45;69.29;95069.41;5133382;27;20461;-76
2024/03/17 06:20:18;;;;;;;44.63;27.40;;;;;;;8.12;67.45;95075.19;5113996;27;20061;-76
2024/03/17 06:22:43;;;;;;;48.65;30.70;;;;;;;8.93;64.42;95053.09;5130232;27;20029;-77
2024/03/17 06:25:09;;;;;;;44.63;25.25;;;;;;;9.67;62.05;95077.03;5116528;27;20047;-76
2024/03/17 06:27:35;;;;;;;29.63;21.13;;;;;;;10.05;60.42;95071.50;5115571;27;20458;-76
2024/03/17 06:30:03;;;;;;;23.80;17.15;;;;;;;10.65;57.22;95060.88;5128703;27;20598;-76
2024/03/17 06:32:35;;;;;;;23.83;15.80;;;;;;;11.11;56.25;95084.00;5152125;27;20031;-77
2024/03/17 06:35:03;;;;;;;21.17;15.90;;;;;;;11.68;54.66;95086.38;5154161;27;20106;-79
2024/03/17 06:37:28;;;;;;;26.63;15.45;;;;;;;11.63;54.37;95091.97;5119017;27;20196;-78
2024/03/17 06:39:54;;;;;;;24.45;17.23;;;;;;;12.67;52.24;95080.53;5101545;27;20529;-78
2024/03/17 06:42:20;;;;;;;24.13;15.55;;;;;;;13.58;48.87;95088.22;5106782;27;20019;-76
2024/03/17 06:44:45;;;;;;;22.00;14.75;;;;;;;14.24;48.25;95084.78;5115255;27;20023;-76
2024/03/17 06:47:11;;;;;;;23.13;14.45;;;;;;;14.40;46.78;95086.78;5131961;27;20076;-77
2024/03/17 06:49:36;;;;;;;20.60;14.27;;;;;;;12.96;49.94;95088.44;5115676;27;20034;-76
2024/03/17 06:52:02;;;;;;;18.58;13.82;;;;;;;12.14;52.56;95090.34;5107229;27;20039;-76
2024/03/17 06:54:27;;;;;;;22.42;15.65;;;;;;;12.70;50.83;95051.63;5134207;27;20110;-77
2024/03/17 06:56:53;;;;;;;23.23;16.00;;;;;;;12.22;51.78;95074.91;5122598;27;20479;-76
2024/03/17 06:59:20;;;;;;;27.42;16.60;;;;;;;11.92;53.32;95086.94;5098491;27;20023;-75
2024/03/17 07:01:46;;;;;;;24.77;16.52;;;;;;;11.95;54.16;95088.47;5092565;27;20028;-76
2024/03/17 07:04:12;;;;;;;25.52;17.83;;;;;;;12.37;51.70;95089.25;5117233;27;20027;-75
2024/03/17 07:06:38;;;;;;;21.10;14.93;;;;;;;12.27;52.07;95091.78;5112413;27;20034;-75
2024/03/17 07:09:03;;;;;;;23.77;16.23;;;;;;;12.42;51.58;95097.47;5130994;27;20128;-76
2024/03/17 07:11:28;;;;;;;17.60;13.77;;;;;;;12.21;52.16;95081.09;5106115;27;20084;-76
2024/03/17 07:13:54;;;;;;;20.77;14.90;;;;;;;12.02;53.00;95093.03;5103819;27;20154;-76
2024/03/17 07:16:21;;;;;;;23.70;14.82;;;;;;;12.05;53.29;95082.38;5107410;27;20022;-76
2024/03/17 07:18:47;;;;;;;18.88;13.45;;;;;;;11.92;52.79;95075.72;5133707;27;20109;-76
2024/03/17 07:21:13;;;;;;;17.95;13.30;;;;;;;12.05;53.30;95087.56;5108344;27;20027;-76
2024/03/17 07:23:38;;;;;;;19.23;13.73;;;;;;;12.15;53.02;95076.41;5113656;27;20039;-77
2024/03/17 07:26:09;;;;;;;18.75;13.88;;;;;;;11.82;54.47;95086.06;5104155;27;20504;-76
2024/03/17 07:28:34;;;;;;;19.17;13.23;;;;;;;11.81;54.62;95077.44;5119271;27;20026;-75
2024/03/17 07:31:00;;;;;;;17.13;13.88;;;;;;;12.26;53.85;95077.13;5122419;27;20050;-76
2024/03/17 07:33:26;;;;;;;19.40;14.82;;;;;;;12.36;53.72;95079.75;5132817;27;20026;-76
2024/03/17 07:35:53;;;;;;;21.17;15.38;;;;;;;12.37;53.66;95076.22;5114610;27;20078;-75
2024/03/17 07:38:19;;;;;;;24.17;17.33;;;;;;;12.60;52.36;95078.63;5133823;27;20062;-76
2024/03/17 07:40:45;;;;;;;20.05;14.57;;;;;;;12.77;52.22;95083.19;5127882;27;20099;-75
2024/03/17 07:43:10;;;;;;;20.85;15.38;;;;;;;11.93;54.28;95085.19;5130369;27;20030;-76
2024/03/17 07:45:35;;;;;;;21.92;16.05;;;;;;;12.19;54.30;95081.19;5098303;27;20511;-75
2024/03/17 07:48:01;;;;;;;21.08;16.15;;;;;;;12.48;52.39;95065.69;5118214;27;20439;-77
2024/03/17 07:50:26;;;;;;;19.33;13.38;;;;;;;11.57;54.89;95077.69;5099610;27;20035;-76
2024/03/17 07:52:52;;;;;;;18.08;13.95;;;;;;;11.11;57.38;95080.59;5121533;27;20050;-77
2024/03/17 07:55:17;;;;;;;16.60;13.38;;;;;;;11.10;57.08;95078.94;5134728;27;20612;-76
2024/03/17 07:57:43;;;;;;;36.03;27.98;;;;;;;11.42;56.99;95073.72;5134393;27;20428;-78
2024/03/17 08:00:15;;;;;;;23.45;16.75;;;;;;;11.55;55.35;95068.34;5135040;27;20087;-75
2024/03/17 08:02:44;;;;;;;21.80;16.20;;;;;;;11.16;56.13;95068.06;5151997;27;20097;-74
2024/03/17 08:05:10;;;;;;;20.55;14.60;;;;;;;10.81;58.06;95083.88;5134201;27;20058;-75
2024/03/17 08:07:35;;;;;;;21.30;16.38;;;;;;;10.70;58.99;95080.38;5130266;27;20043;-71
2024/03/17 08:10:00;;;;;;;24.23;16.58;;;;;;;10.46;60.46;95061.50;5148687;27;20034;-74
2024/03/17 08:12:29;;;;;;;22.17;15.10;;;;;;;10.59;60.20;95080.38;5099450;27;20041;-73
2024/03/17 08:14:54;;;;;;;22.52;15.77;;;;;;;10.39;60.24;95078.50;5110394;27;20476;-71
2024/03/17 08:17:20;;;;;;;28.05;17.25;;;;;;;10.19;60.89;95078.25;5133552;27;20037;-69
2024/03/17 08:19:45;;;;;;;23.25;16.85;;;;;;;10.28;60.84;95081.97;5151630;27;20011;-71
2024/03/17 08:22:10;;;;;;;25.08;15.63;;;;;;;10.44;60.72;95063.38;5132610;27;20385;-72
2024/03/17 08:24:36;;;;;;;23.73;15.13;;;;;;;10.46;60.19;95075.31;5116679;27;20027;-71
2024/03/17 08:27:01;;;;;;;21.75;16.13;;;;;;;10.60;60.15;95069.03;5153220;27;20019;-69
2024/03/17 08:29:27;;;;;;;24.08;16.63;;;;;;;10.46;60.10;95058.91;5149791;27;20385;-71
2024/03/17 08:31:53;;;;;;;29.42;18.98;;;;;;;10.58;60.03;95065.72;5116422;27;20031;-71
2024/03/17 08:34:18;;;;;;;30.20;18.38;;;;;;;11.09;59.11;95078.13;5116597;27;20052;-71
2024/03/17 08:36:43;;;;;;;25.77;17.40;;;;;;;10.76;57.83;95041.84;5151625;27;20041;-73
2024/03/17 08:39:11;;;;;;;26.85;16.95;;;;;;;11.20;57.71;95069.47;5152548;27;20496;-72
2024/03/17 08:41:36;;;;;;;25.10;17.17;;;;;;;11.65;56.38;95066.63;5131242;27;20484;-71
2024/03/17 08:44:01;;;;;;;22.70;17.13;;;;;;;11.30;57.06;95072.94;5112363;28;20031;-71
2024/03/17 08:46:27;;;;;;;20.17;15.63;;;;;;;11.00;57.00;95039.84;5123139;27;20134;-73
2024/03/17 08:48:53;;;;;;;21.17;15.55;;;;;;;11.31;56.67;95060.75;5152286;27;20029;-75
2024/03/17 08:51:18;;;;;;;19.75;15.88;;;;;;;11.03;56.51;95023.19;5133930;27;20472;-72
2024/03/17 08:53:43;;;;;;;19.10;15.45;;;;;;;10.81;57.62;95060.47;5152332;27;20018;-72
2024/03/17 08:56:09;;;;;;;20.27;15.02;;;;;;;11.09;57.05;95054.72;5137190;27;20502;-82
2024/03/17 08:58:35;;;;;;;22.48;15.02;;;;;;;11.25;56.56;95061.28;5100584;27;20034;-72
2024/03/17 09:01:09;;;;;;;21.77;16.40;;;;;;;11.10;57.36;95053.78;5135067;27;20484;-72
2024/03/17 09:03:35;;;;;;;19.55;14.98;;;;;;;11.27;57.77;95051.59;5117079;27;20397;-73
2024/03/17 09:06:01;;;;;;;19.30;15.35;;;;;;;11.10;57.54;95053.78;5119581;27;20038;-73
2024/03/17 09:08:28;;;;;;;19.13;14.75;;;;;;;11.13;56.69;95027.53;5133664;27;20031;-74
2024/03/17 09:10:54;;;;;;;18.85;14.00;;;;;;;11.14;57.19;95051.75;5132496;27;20027;-74
2024/03/17 09:13:20;;;;;;;18.42;13.38;;;;;;;11.36;55.82;95037.81;5110206;27;20122;-75
2024/03/17 09:16:02;;;;;;;19.50;13.65;;;;;;;11.25;56.40;95043.06;5136097;27;20492;-72
2024/03/17 09:18:28;;;;;;;19.63;12.85;;;;;;;11.69;55.86;95047.19;5153673;27;20033;-76
2024/03/17 09:21:00;;;;;;;16.95;12.40;;;;;;;12.19;54.31;95036.09;5120767;27;20030;-74
2024/03/17 09:23:27;;;;;;;18.35;13.88;;;;;;;12.17;55.03;95035.41;5114262;27;20551;-76
2024/03/17 09:25:57;;;;;;;16.80;12.23;;;;;;;11.97;53.97;95031.91;5117739;27;20023;-72
2024/03/17 09:28:22;;;;;;;15.88;12.30;;;;;;;11.65;55.39;95021.59;5132825;27;20488;-80
2024/03/17 09:30:49;;;;;;;14.10;10.82;;;;;;;12.52;51.55;95021.94;5135515;27;20118;-80
2024/03/17 09:33:14;;;;;;;16.60;11.90;;;;;;;12.34;53.45;95016.56;5134719;27;20022;-79
2024/03/17 09:35:40;;;;;;;15.18;11.45;;;;;;;12.76;52.93;95018.97;5129234;27;20061;-79
2024/03/17 09:38:05;;;;;;;14.35;10.63;;;;;;;12.94;52.01;95019.94;5132860;27;20039;-80
2024/03/17 09:40:31;;;;;;;16.48;11.38;;;;;;;12.05;53.00;95013.84;5119308;27;20083;-78
2024/03/17 09:42:56;;;;;;;13.00;10.73;;;;;;;12.29;51.88;95006.53;5119301;27;20026;-79
2024/03/17 09:45:23;;;;;;;12.40;9.90;;;;;;;12.62;50.71;95001.09;5099489;27;20056;-80
2024/03/17 09:47:48;;;;;;;13.00;10.02;;;;;;;12.14;51.52;95009.63;5102257;27;20377;-81
2024/03/17 09:50:18;;;;;;;13.75;9.93;;;;;;;12.33;51.73;95009.69;5132591;27;20449;-80
2024/03/17 09:52:44;;;;;;;11.48;8.93;;;;;;;12.92;50.26;94994.97;5105072;27;20455;-80
2024/03/17 09:55:15;;;;;;;16.08;11.10;;;;;;;13.05;52.18;95005.97;5097652;27;20031;-78
2024/03/17 09:57:41;;;;;;;;;;;;;;;13.30;50.17;95009.81;5131904;27;20034;-78
2024/03/17 10:00:13;;;;;;;15.63;10.18;;;;;;;13.35;49.33;94999.78;5136228;27;20360;-80
2024/03/17 10:02:45;;;;;;;14.60;9.15;;;;;;;13.40;47.32;95002.00;5108594;27;20033;-80
2024/03/17 10:05:21;;;;;;;10.50;7.30;;;;;;;12.83;47.23;95003.63;5136553;27;20484;-79
2024/03/17 10:07:47;;;;;;;9.00;6.47;;;;;;;12.85;45.11;94991.28;5115980;27;20503;-80
2024/03/17 10:10:13;;;;;;;8.73;6.68;;;;;;;13.04;44.00;94999.09;5099787;27;20136;-80
2024/03/17 10:12:38;;;;;;;10.52;6.78;;;;;;;12.80;45.12;94989.06;5142304;27;20015;-80
2024/03/17 10:15:04;;;;;;;8.90;6.03;;;;;;;12.79;44.20;95003.06;5135168;27;20047;-80
2024/03/17 10:17:33;;;;;;;7.95;5.93;;;;;;;12.69;43.27;94989.19;5113839;27;20043;-79
2024/03/17 10:20:17;;;;;;;11.57;5.60;;;;;;;13.10;42.56;95005.56;5120195;27;20074;-80
2024/03/17 10:23:09;;;;;;;6.88;5.70;;;;;;;13.37;43.41;95003.09;5120433;27;20107;-81
2024/03/17 10:25:38;;;;;;;9.60;5.93;;;;;;;13.44;44.34;94997.31;5137125;27;20045;-80
2024/03/17 10:28:13;;;;;;;6.50;5.32;;;;;;;13.89;41.51;95012.31;5115541;27;20020;-81
2024/03/17 10:30:39;;;;;;;7.95;6.13;;;;;;;13.61;42.66;95001.81;5106348;27;20122;-82
2024/03/17 10:33:07;;;;;;;9.68;6.05;;;;;;;13.46;42.68;95004.03;5135206;27;20027;-78
2024/03/17 10:35:38;;;;;;;8.35;5.45;;;;;;;13.54;42.53;95008.53;5097533;27;20042;-83
2024/03/17 10:38:04;;;;;;;27.98;15.88;;;;;;;13.56;42.04;94998.78;5104758;27;20516;-81
2024/03/17 10:40:30;;;;;;;10.00;7.00;;;;;;;13.85;41.40;94999.53;5098399;27;20055;-83
2024/03/17 10:42:57;;;;;;;7.32;4.32;;;;;;;13.58;40.34;95007.31;5112102;27;20072;-82
2024/03/17 10:45:22;;;;;;;6.40;4.40;;;;;;;14.15;39.00;95002.03;5115733;27;20110;-80
2024/03/17 10:47:49;;;;;;;5.57;3.83;;;;;;;13.89;39.17;95005.28;5112263;27;20038;-80
2024/03/17 10:50:19;;;;;;;5.13;4.20;;;;;;;13.98;39.62;94991.38;5128697;27;20500;-80
2024/03/17 10:52:46;;;;;;;7.60;4.13;;;;;;;14.19;37.49;94978.09;5135545;27;20037;-80
2024/03/17 10:55:13;;;;;;;5.13;4.13;;;;;;;14.24;39.04;94995.97;5116848;27;20359;-80
2024/03/17 10:57:45;;;;;;;5.70;4.00;;;;;;;14.55;38.42;94988.66;5101517;27;20023;-80
2024/03/17 11:00:12;;;;;;;6.43;4.72;;;;;;;14.63;39.69;94988.75;5120113;27;20030;-82
2024/03/17 11:02:38;;;;;;;5.70;3.70;;;;;;;14.26;38.21;94984.41;5116174;27;20077;-78
2024/03/17 11:05:24;;;;;;;5.22;3.80;;;;;;;14.48;37.68;94993.59;5116367;27;20446;-77
2024/03/17 11:07:54;;;;;;;4.10;3.10;;;;;;;14.45;39.29;94985.25;5148138;27;20034;-79
2024/03/17 11:10:33;;;;;;;5.05;3.60;;;;;;;13.79;38.73;94981.00;5115411;27;20404;-77
2024/03/17 11:12:59;;;;;;;5.80;4.55;;;;;;;13.55;39.73;94978.88;5135357;27;20019;-79
2024/03/17 11:15:25;;;;;;;5.35;4.20;;;;;;;13.24;40.98;94980.84;5135491;27;20050;-78
2024/03/17 11:17:54;;;;;;;8.10;5.00;;;;;;;13.79;40.78;94979.22;5153813;27;20024;-77
2024/03/17 11:20:28;;;;;;;8.45;5.88;;;;;;;13.55;40.08;94976.28;5101854;27;20567;-76
2024/03/17 11:22:58;;;;;;;5.45;4.32;;;;;;;13.60;40.23;94972.28;5119753;27;20031;-76
2024/03/17 11:25:26;;;;;;;9.73;6.15;;;;;;;13.91;38.04;94972.03;5097197;27;20046;-76
2024/03/17 11:27:57;;;;;;;8.55;5.30;;;;;;;13.67;40.91;94956.84;5132245;27;20063;-76